sensor_id;sensor_type;location;lat;lon;timestamp;pressure;altitude;pressure_sealevel;temperature;humidity
18749;BME280;9503;53.560;10.246;2023-02-21T07:02:30;100716.25;;;8.11;100.00
18749;BME280;9503;53.560;10.246;2023-02-21T07:04:57;100723.09;;;8.26;100.00
18749;BME280;9503;53.560;10.246;2023-02-21T07:07:24;100736.84;;;8.43;100.00
18749;BME280;9503;53.560;10.246;2023-02-21T07:09:50;100746.09;;;8.56;100.00
18749;BME280;9503;53.560;10.246;2023-02-21T07:12:17;100742.31;;;8.95;100.00
18749;BME280;9503;53.560;10.246;2023-02-21T07:14:44;100754.81;;;9.05;100.00
18749;BME280;9503;53.560;10.246;2023-02-21T07:17:10;100761.50;;;9.18;100.00
18749;BME280;9503;53.560;10.246;2023-02-21T07:19:38;100772.28;;;9.61;100.00
18749;BME280;9503;53.560;10.246;2023-02-21T07:22:06;100795.66;;;9.51;100.00
18749;BME280;9503;53.560;10.246;2023-02-21T07:24:33;100794.63;;;9.64;100.00
18749;BME280;9503;53.560;10.246;2023-02-21T07:26:59;100804.59;;;9.43;100.00
18749;BME280;9503;53.560;10.246;2023-02-21T07:29:26;100800.56;;;9.63;100.00
18749;BME280;9503;53.560;10.246;2023-02-21T07:31:54;100804.41;;;9.87;100.00
18749;BME280;9503;53.560;10.246;2023-02-21T07:34:20;100801.25;;;10.09;100.00
18749;BME280;9503;53.560;10.246;2023-02-21T07:36:49;100804.34;;;10.20;100.00
18749;BME280;9503;53.560;10.246;2023-02-21T07:39:15;100811.66;;;9.96;100.00
18749;BME280;9503;53.560;10.246;2023-02-21T07:41:42;100810.00;;;10.29;100.00
18749;BME280;9503;53.560;10.246;2023-02-21T07:44:09;100808.44;;;10.16;100.00
18749;BME280;9503;53.560;10.246;2023-02-21T07:46:36;100810.59;;;10.41;100.00
18749;BME280;9503;53.560;10.246;2023-02-21T07:49:02;100810.84;;;10.13;100.00
18749;BME280;9503;53.560;10.246;2023-02-21T07:51:29;100819.25;;;10.27;100.00
18749;BME280;9503;53.560;10.246;2023-02-21T07:53:57;100818.63;;;10.31;100.00
18749;BME280;9503;53.560;10.246;2023-02-21T07:56:24;100829.59;;;10.45;100.00
18749;BME280;9503;53.560;10.246;2023-02-21T07:58:51;100831.03;;;10.74;100.00
18749;BME280;9503;53.560;10.246;2023-02-21T08:01:22;100835.53;;;10.62;100.00
18749;BME280;9503;53.560;10.246;2023-02-21T08:03:49;100841.72;;;10.65;100.00
18749;BME280;9503;53.560;10.246;2023-02-21T08:06:16;100840.47;;;10.93;100.00
18749;BME280;9503;53.560;10.246;2023-02-21T08:08:43;100839.22;;;10.67;100.00
18749;BME280;9503;53.560;10.246;2023-02-21T08:11:11;100844.13;;;11.16;100.00
18749;BME280;9503;53.560;10.246;2023-02-21T08:13:38;100844.59;;;11.25;100.00
18749;BME280;9503;53.560;10.246;2023-02-21T08:16:05;100850.59;;;11.07;100.00
18749;BME280;9503;53.560;10.246;2023-02-21T08:18:32;100850.88;;;10.78;100.00
18749;BME280;9503;53.560;10.246;2023-02-21T08:20:58;100854.53;;;10.49;100.00
18749;BME280;9503;53.560;10.246;2023-02-21T08:23:25;100859.81;;;10.86;100.00
18749;BME280;9503;53.560;10.246;2023-02-21T08:25:52;100861.44;;;10.17;100.00
18749;BME280;9503;53.560;10.246;2023-02-21T08:28:20;100861.16;;;10.44;100.00
18749;BME280;9503;53.560;10.246;2023-02-21T08:30:46;100862.25;;;10.83;100.00
18749;BME280;9503;53.560;10.246;2023-02-21T08:33:13;100868.91;;;11.15;100.00
18749;BME280;9503;53.560;10.246;2023-02-21T08:35:40;100870.81;;;11.37;100.00
18749;BME280;9503;53.560;10.246;2023-02-21T08:38:07;100882.72;;;11.72;100.00
18749;BME280;9503;53.560;10.246;2023-02-21T08:40:34;100868.91;;;11.15;100.00
18749;BME280;9503;53.560;10.246;2023-02-21T08:43:01;100873.38;;;11.37;100.00
18749;BME280;9503;53.560;10.246;2023-02-21T08:45:31;100877.69;;;10.67;100.00
18749;BME280;9503;53.560;10.246;2023-02-21T08:47:58;100874.00;;;10.79;100.00
18749;BME280;9503;53.560;10.246;2023-02-21T08:50:26;100883.63;;;10.66;100.00
18749;BME280;9503;53.560;10.246;2023-02-21T08:52:54;100882.94;;;11.22;100.00
18749;BME280;9503;53.560;10.246;2023-02-21T08:55:22;100882.63;;;11.51;100.00
18749;BME280;9503;53.560;10.246;2023-02-21T08:57:50;100891.94;;;11.14;100.00
18749;BME280;9503;53.560;10.246;2023-02-21T09:00:19;100889.69;;;11.02;100.00
18749;BME280;9503;53.560;10.246;2023-02-21T09:02:49;100897.56;;;11.60;100.00
18749;BME280;9503;53.560;10.246;2023-02-21T09:05:19;100894.00;;;11.56;100.00
18749;BME280;9503;53.560;10.246;2023-02-21T09:07:48;100883.34;;;11.31;100.00
18749;BME280;9503;53.560;10.246;2023-02-21T09:10:15;100890.56;;;11.02;100.00
18749;BME280;9503;53.560;10.246;2023-02-21T09:12:42;100899.13;;;11.21;100.00
18749;BME280;9503;53.560;10.246;2023-02-21T09:15:09;100895.63;;;11.19;100.00
18749;BME280;9503;53.560;10.246;2023-02-21T09:17:36;100897.47;;;11.39;100.00
18749;BME280;9503;53.560;10.246;2023-02-21T09:20:06;100907.88;;;11.24;100.00
18749;BME280;9503;53.560;10.246;2023-02-21T09:22:33;100910.56;;;11.45;100.00
18749;BME280;9503;53.560;10.246;2023-02-21T09:25:01;100909.91;;;11.49;100.00
18749;BME280;9503;53.560;10.246;2023-02-21T09:27:27;100914.97;;;11.48;100.00
18749;BME280;9503;53.560;10.246;2023-02-21T09:30:03;100915.59;;;11.79;100.00
18749;BME280;9503;53.560;10.246;2023-02-21T09:32:30;100917.66;;;11.86;100.00
18749;BME280;9503;53.560;10.246;2023-02-21T09:34:57;100917.44;;;10.93;100.00
18749;BME280;9503;53.560;10.246;2023-02-21T09:37:25;100913.53;;;11.17;100.00
18749;BME280;9503;53.560;10.246;2023-02-21T09:39:52;100926.25;;;11.51;100.00
18749;BME280;9503;53.560;10.246;2023-02-21T09:42:21;100931.00;;;11.79;100.00
18749;BME280;9503;53.560;10.246;2023-02-21T09:44:55;100933.09;;;11.33;100.00
18749;BME280;9503;53.560;10.246;2023-02-21T09:47:30;100945.69;;;12.00;100.00
18749;BME280;9503;53.560;10.246;2023-02-21T09:50:02;100945.56;;;12.16;100.00
18749;BME280;9503;53.560;10.246;2023-02-21T09:52:33;100942.41;;;13.00;100.00
18749;BME280;9503;53.560;10.246;2023-02-21T09:55:02;100947.47;;;12.99;100.00
18749;BME280;9503;53.560;10.246;2023-02-21T09:57:32;100945.22;;;12.47;100.00
18749;BME280;9503;53.560;10.246;2023-02-21T09:59:59;100945.56;;;12.16;100.00
18749;BME280;9503;53.560;10.246;2023-02-21T10:02:39;100942.78;;;12.11;100.00
18749;BME280;9503;53.560;10.246;2023-02-21T10:05:17;100939.16;;;12.45;100.00
18749;BME280;9503;53.560;10.246;2023-02-21T10:07:53;100950.81;;;12.56;100.00
18749;BME280;9503;53.560;10.246;2023-02-21T10:10:27;100952.16;;;12.29;100.00
18749;BME280;9503;53.560;10.246;2023-02-21T10:12:59;100955.09;;;12.18;100.00
18749;BME280;9503;53.560;10.246;2023-02-21T10:15:38;100956.16;;;12.04;100.00
18749;BME280;9503;53.560;10.246;2023-02-21T10:18:14;100952.47;;;11.98;100.00
18749;BME280;9503;53.560;10.246;2023-02-21T10:20:48;100952.94;;;12.47;100.00
18749;BME280;9503;53.560;10.246;2023-02-21T10:23:21;100957.59;;;11.98;100.00
18749;BME280;9503;53.560;10.246;2023-02-21T10:25:51;100946.44;;;11.61;100.00
18749;BME280;9503;53.560;10.246;2023-02-21T10:28:21;100942.97;;;11.79;100.00
18749;BME280;9503;53.560;10.246;2023-02-21T10:30:53;100946.78;;;12.24;100.00
18749;BME280;9503;53.560;10.246;2023-02-21T10:33:20;100949.84;;;12.35;100.00
18749;BME280;9503;53.560;10.246;2023-02-21T10:35:46;100948.84;;;12.51;100.00
18749;BME280;9503;53.560;10.246;2023-02-21T10:38:16;100958.53;;;12.77;100.00
18749;BME280;9503;53.560;10.246;2023-02-21T10:40:47;100955.84;;;12.74;100.00
18749;BME280;9503;53.560;10.246;2023-02-21T10:43:19;100959.78;;;12.85;98.33
18749;BME280;9503;53.560;10.246;2023-02-21T10:45:50;100968.50;;;12.89;98.18
18749;BME280;9503;53.560;10.246;2023-02-21T10:48:19;100970.72;;;12.81;98.16
18749;BME280;9503;53.560;10.246;2023-02-21T10:50:51;100969.44;;;12.33;98.18
18749;BME280;9503;53.560;10.246;2023-02-21T10:53:25;100971.50;;;12.40;98.46
18749;BME280;9503;53.560;10.246;2023-02-21T10:58:56;100955.53;;;13.27;96.22
18749;BME280;9503;53.560;10.246;2023-02-21T11:01:41;100957.56;;;14.00;92.85
18749;BME280;9503;53.560;10.246;2023-02-21T11:04:24;100950.75;;;14.02;90.95
18749;BME280;9503;53.560;10.246;2023-02-21T11:06:53;100957.53;;;13.35;92.14
18749;BME280;9503;53.560;10.246;2023-02-21T11:09:35;100963.25;;;13.27;92.99
18749;BME280;9503;53.560;10.246;2023-02-21T11:12:15;100958.38;;;13.14;94.61
18749;BME280;9503;53.560;10.246;2023-02-21T11:14:43;100967.63;;;12.30;93.80
18749;BME280;9503;53.560;10.246;2023-02-21T11:17:15;100961.75;;;12.52;97.11
18749;BME280;9503;53.560;10.246;2023-02-21T11:19:52;100956.13;;;12.61;95.86
18749;BME280;9503;53.560;10.246;2023-02-21T11:22:21;100950.22;;;12.83;94.97
18749;BME280;9503;53.560;10.246;2023-02-21T11:24:58;100951.25;;;13.49;92.91
18749;BME280;9503;53.560;10.246;2023-02-21T11:27:29;100947.50;;;13.20;93.82
18749;BME280;9503;53.560;10.246;2023-02-21T11:29:57;100942.94;;;13.56;93.93
18749;BME280;9503;53.560;10.246;2023-02-21T11:32:29;100939.13;;;13.90;90.95
18749;BME280;9503;53.560;10.246;2023-02-21T11:35:01;100943.03;;;13.80;94.14
18749;BME280;9503;53.560;10.246;2023-02-21T11:37:29;100940.38;;;13.56;92.04
18749;BME280;9503;53.560;10.246;2023-02-21T11:39:56;100942.66;;;12.66;93.01
18749;BME280;9503;53.560;10.246;2023-02-21T11:42:28;100941.84;;;12.67;97.04
18749;BME280;9503;53.560;10.246;2023-02-21T11:45:19;100930.00;;;12.92;95.68
18749;BME280;9503;53.560;10.246;2023-02-21T11:47:52;100935.97;;;13.31;94.51
18749;BME280;9503;53.560;10.246;2023-02-21T11:50:24;100934.22;;;13.30;94.32
18749;BME280;9503;53.560;10.246;2023-02-21T11:52:58;100936.00;;;13.53;91.63
18749;BME280;9503;53.560;10.246;2023-02-21T11:55:26;100937.38;;;13.66;92.80
18749;BME280;9503;53.560;10.246;2023-02-21T11:58:04;100935.88;;;13.73;92.40
18749;BME280;9503;53.560;10.246;2023-02-21T12:00:40;100939.72;;;13.39;92.66
18749;BME280;9503;53.560;10.246;2023-02-21T12:06:20;100935.06;;;13.10;92.33
18749;BME280;9503;53.560;10.246;2023-02-21T12:08:56;100939.81;;;12.80;96.46
18749;BME280;9503;53.560;10.246;2023-02-21T12:11:33;100935.31;;;12.35;97.35
18749;BME280;9503;53.560;10.246;2023-02-21T12:14:11;100944.78;;;12.77;98.80
18749;BME280;9503;53.560;10.246;2023-02-21T12:16:49;100935.94;;;12.70;97.03
18749;BME280;9503;53.560;10.246;2023-02-21T12:19:28;100934.03;;;13.06;96.14
18749;BME280;9503;53.560;10.246;2023-02-21T12:22:01;100935.59;;;12.82;97.34
18749;BME280;9503;53.560;10.246;2023-02-21T12:24:42;100938.59;;;13.33;94.30
18749;BME280;9503;53.560;10.246;2023-02-21T12:27:16;100936.69;;;13.28;95.85
18749;BME280;9503;53.560;10.246;2023-02-21T12:30:08;100932.41;;;13.50;96.65
18749;BME280;9503;53.560;10.246;2023-02-21T12:32:49;100941.69;;;13.67;95.34
18749;BME280;9503;53.560;10.246;2023-02-21T12:35:47;100950.53;;;13.31;96.65
18749;BME280;9503;53.560;10.246;2023-02-21T12:38:25;100935.94;;;13.10;97.88
18749;BME280;9503;53.560;10.246;2023-02-21T12:41:01;100938.16;;;12.82;99.48
18749;BME280;9503;53.560;10.246;2023-02-21T12:43:39;100937.00;;;12.35;100.00
18749;BME280;9503;53.560;10.246;2023-02-21T12:46:14;100946.88;;;12.45;100.00
18749;BME280;9503;53.560;10.246;2023-02-21T12:48:50;100942.06;;;12.72;100.00
18749;BME280;9503;53.560;10.246;2023-02-21T12:51:25;100947.09;;;13.11;100.00
18749;BME280;9503;53.560;10.246;2023-02-21T12:53:56;100946.66;;;13.00;100.00
18749;BME280;9503;53.560;10.246;2023-02-21T12:56:27;100940.13;;;12.87;100.00
18749;BME280;9503;53.560;10.246;2023-02-21T12:58:59;100947.97;;;12.90;100.00
18749;BME280;9503;53.560;10.246;2023-02-21T13:01:31;100952.59;;;12.99;99.75
18749;BME280;9503;53.560;10.246;2023-02-21T13:04:12;100950.09;;;12.80;98.97
18749;BME280;9503;53.560;10.246;2023-02-21T13:06:46;100953.53;;;12.80;98.92
18749;BME280;9503;53.560;10.246;2023-02-21T13:09:23;100956.72;;;12.75;100.00
18749;BME280;9503;53.560;10.246;2023-02-21T13:11:56;100943.91;;;12.95;100.00
18749;BME280;9503;53.560;10.246;2023-02-21T13:14:28;100948.44;;;13.22;99.13
18749;BME280;9503;53.560;10.246;2023-02-21T13:16:59;100939.91;;;12.83;96.91
18749;BME280;9503;53.560;10.246;2023-02-21T13:19:39;100937.25;;;13.00;97.42
18749;BME280;9503;53.560;10.246;2023-02-21T13:25:38;100942.09;;;12.93;95.24
18749;BME280;9503;53.560;10.246;2023-02-21T13:28:12;100953.66;;;12.43;97.42
18749;BME280;9503;53.560;10.246;2023-02-21T13:30:44;100935.22;;;12.53;97.93
18749;BME280;9503;53.560;10.246;2023-02-21T13:33:24;100948.75;;;12.68;97.83
18749;BME280;9503;53.560;10.246;2023-02-21T13:35:51;100948.50;;;12.43;98.50
18749;BME280;9503;53.560;10.246;2023-02-21T13:38:19;100950.88;;;12.58;97.73
18749;BME280;9503;53.560;10.246;2023-02-21T13:40:51;100956.59;;;12.33;96.11
18749;BME280;9503;53.560;10.246;2023-02-21T13:43:22;100949.00;;;12.16;94.79
18749;BME280;9503;53.560;10.246;2023-02-21T13:45:49;100937.81;;;12.34;94.13
18749;BME280;9503;53.560;10.246;2023-02-21T13:48:25;100945.09;;;12.25;92.91
18749;BME280;9503;53.560;10.246;2023-02-21T13:50:53;100934.75;;;12.42;92.49
18749;BME280;9503;53.560;10.246;2023-02-21T13:53:22;100933.34;;;11.75;92.39
18749;BME280;9503;53.560;10.246;2023-02-21T13:56:18;100931.97;;;11.99;91.56
18749;BME280;9503;53.560;10.246;2023-02-21T13:58:46;100935.50;;;12.21;89.67
18749;BME280;9503;53.560;10.246;2023-02-21T14:01:21;100923.59;;;11.68;91.41
18749;BME280;9503;53.560;10.246;2023-02-21T14:03:50;100940.31;;;12.13;93.17
18749;BME280;9503;53.560;10.246;2023-02-21T14:06:31;100920.47;;;12.10;93.84
18749;BME280;9503;53.560;10.246;2023-02-21T14:09:03;100933.13;;;12.25;95.90
18749;BME280;9503;53.560;10.246;2023-02-21T14:11:35;100936.31;;;12.20;96.46
18749;BME280;9503;53.560;10.246;2023-02-21T14:14:04;100930.53;;;11.69;97.54
18749;BME280;9503;53.560;10.246;2023-02-21T14:16:33;100934.81;;;12.05;98.23
18749;BME280;9503;53.560;10.246;2023-02-21T14:19:06;100943.06;;;11.98;98.99
18749;BME280;9503;53.560;10.246;2023-02-21T14:21:35;100935.13;;;11.94;99.41
18749;BME280;9503;53.560;10.246;2023-02-21T14:24:05;100941.16;;;11.94;99.90
18749;BME280;9503;53.560;10.246;2023-02-21T14:26:42;100932.25;;;12.05;99.81
18749;BME280;9503;53.560;10.246;2023-02-21T14:29:29;100936.91;;;11.77;100.00
18749;BME280;9503;53.560;10.246;2023-02-21T14:32:15;100938.88;;;11.65;100.00
18749;BME280;9503;53.560;10.246;2023-02-21T14:34:51;100936.16;;;11.44;100.00
18749;BME280;9503;53.560;10.246;2023-02-21T14:37:23;100939.81;;;12.02;100.00
18749;BME280;9503;53.560;10.246;2023-02-21T14:39:52;100942.47;;;12.23;100.00
18749;BME280;9503;53.560;10.246;2023-02-21T14:42:43;100951.25;;;12.09;100.00
18749;BME280;9503;53.560;10.246;2023-02-21T14:45:28;100942.31;;;12.39;100.00
18749;BME280;9503;53.560;10.246;2023-02-21T14:48:09;100937.94;;;12.37;100.00
18749;BME280;9503;53.560;10.246;2023-02-21T14:50:55;100929.91;;;11.74;100.00
18749;BME280;9503;53.560;10.246;2023-02-21T14:53:59;100932.63;;;11.77;100.00
18749;BME280;9503;53.560;10.246;2023-02-21T14:56:45;100938.81;;;11.81;100.00
18749;BME280;9503;53.560;10.246;2023-02-21T14:59:44;100942.47;;;11.86;100.00
18749;BME280;9503;53.560;10.246;2023-02-21T15:02:24;100932.34;;;11.89;100.00
18749;BME280;9503;53.560;10.246;2023-02-21T15:04:57;100948.44;;;11.31;100.00
18749;BME280;9503;53.560;10.246;2023-02-21T15:07:38;100947.22;;;11.96;100.00
18749;BME280;9503;53.560;10.246;2023-02-21T15:10:13;100943.34;;;11.51;100.00
18749;BME280;9503;53.560;10.246;2023-02-21T15:12:42;100948.78;;;11.93;100.00
18749;BME280;9503;53.560;10.246;2023-02-21T15:15:15;100945.34;;;11.92;100.00
18749;BME280;9503;53.560;10.246;2023-02-21T15:17:43;100949.38;;;11.87;100.00
18749;BME280;9503;53.560;10.246;2023-02-21T15:20:14;100950.88;;;11.46;100.00
18749;BME280;9503;53.560;10.246;2023-02-21T15:22:43;100949.88;;;11.44;100.00
18749;BME280;9503;53.560;10.246;2023-02-21T15:25:18;100951.28;;;11.38;100.00
18749;BME280;9503;53.560;10.246;2023-02-21T15:30:39;100941.13;;;11.23;100.00
18749;BME280;9503;53.560;10.246;2023-02-21T15:33:16;100932.94;;;11.12;100.00
18749;BME280;9503;53.560;10.246;2023-02-21T15:35:49;100940.63;;;11.30;100.00
18749;BME280;9503;53.560;10.246;2023-02-21T15:38:22;100937.56;;;11.19;100.00
18749;BME280;9503;53.560;10.246;2023-02-21T15:40:53;100936.75;;;11.02;100.00
18749;BME280;9503;53.560;10.246;2023-02-21T15:43:27;100939.75;;;11.12;100.00
18749;BME280;9503;53.560;10.246;2023-02-21T15:45:56;100935.25;;;11.07;100.00
18749;BME280;9503;53.560;10.246;2023-02-21T15:48:25;100927.78;;;10.94;100.00
18749;BME280;9503;53.560;10.246;2023-02-21T15:50:52;100947.69;;;10.82;100.00
18749;BME280;9503;53.560;10.246;2023-02-21T15:53:22;100946.19;;;11.03;100.00
18749;BME280;9503;53.560;10.246;2023-02-21T15:55:50;100947.44;;;11.12;100.00
18749;BME280;9503;53.560;10.246;2023-02-21T15:58:21;100943.78;;;10.72;100.00
18749;BME280;9503;53.560;10.246;2023-02-21T16:00:49;100945.94;;;10.81;100.00
18749;BME280;9503;53.560;10.246;2023-02-21T16:03:34;100945.88;;;10.97;100.00
18749;BME280;9503;53.560;10.246;2023-02-21T16:06:22;100948.88;;;10.89;100.00
18749;BME280;9503;53.560;10.246;2023-02-21T16:09:17;100944.75;;;10.58;100.00
18749;BME280;9503;53.560;10.246;2023-02-21T16:11:50;100945.06;;;10.48;100.00
18749;BME280;9503;53.560;10.246;2023-02-21T16:14:21;100945.63;;;10.75;100.00
18749;BME280;9503;53.560;10.246;2023-02-21T16:16:58;100958.44;;;10.75;100.00
18749;BME280;9503;53.560;10.246;2023-02-21T16:19:31;100959.00;;;10.69;100.00
18749;BME280;9503;53.560;10.246;2023-02-21T16:22:13;100957.72;;;10.61;100.00
18749;BME280;9503;53.560;10.246;2023-02-21T16:24:49;100970.88;;;10.51;100.00
18749;BME280;9503;53.560;10.246;2023-02-21T16:27:29;100966.13;;;10.42;100.00
18749;BME280;9503;53.560;10.246;2023-02-21T16:29:56;100966.03;;;10.57;100.00
18749;BME280;9503;53.560;10.246;2023-02-21T16:32:22;100966.72;;;10.53;100.00
18749;BME280;9503;53.560;10.246;2023-02-21T16:34:50;100967.31;;;10.82;100.00
18749;BME280;9503;53.560;10.246;2023-02-21T16:37:20;100972.19;;;10.93;100.00
18749;BME280;9503;53.560;10.246;2023-02-21T16:39:47;100972.69;;;10.70;100.00
18749;BME280;9503;53.560;10.246;2023-02-21T16:42:15;100981.13;;;11.01;100.00
18749;BME280;9503;53.560;10.246;2023-02-21T16:44:42;100976.94;;;10.69;100.00
18749;BME280;9503;53.560;10.246;2023-02-21T16:47:12;100973.59;;;10.54;100.00
18749;BME280;9503;53.560;10.246;2023-02-21T16:49:39;100968.72;;;10.59;100.00
18749;BME280;9503;53.560;10.246;2023-02-21T16:52:05;100976.94;;;10.69;100.00
18749;BME280;9503;53.560;10.246;2023-02-21T16:54:32;100975.03;;;10.65;100.00
18749;BME280;9503;53.560;10.246;2023-02-21T16:56:58;100976.88;;;10.51;100.00
18749;BME280;9503;53.560;10.246;2023-02-21T16:59:26;100981.69;;;10.45;100.00
18749;BME280;9503;53.560;10.246;2023-02-21T17:01:53;100993.03;;;10.83;100.00
18749;BME280;9503;53.560;10.246;2023-02-21T17:04:22;100986.38;;;10.87;100.00
18749;BME280;9503;53.560;10.246;2023-02-21T17:06:53;100995.47;;;10.80;100.00
18749;BME280;9503;53.560;10.246;2023-02-21T17:09:21;100988.09;;;10.54;100.00
18749;BME280;9503;53.560;10.246;2023-02-21T17:11:48;100990.59;;;10.52;100.00
18749;BME280;9503;53.560;10.246;2023-02-21T17:14:15;100992.00;;;10.31;100.00
18749;BME280;9503;53.560;10.246;2023-02-21T17:16:43;100994.41;;;10.28;100.00
18749;BME280;9503;53.560;10.246;2023-02-21T17:19:15;100993.84;;;10.33;100.00
18749;BME280;9503;53.560;10.246;2023-02-21T17:21:42;100995.13;;;10.41;100.00
18749;BME280;9503;53.560;10.246;2023-02-21T17:24:10;100997.53;;;10.38;100.00
18749;BME280;9503;53.560;10.246;2023-02-21T17:26:38;101000.53;;;10.15;100.00
18749;BME280;9503;53.560;10.246;2023-02-21T17:29:05;100998.13;;;10.18;100.00
18749;BME280;9503;53.560;10.246;2023-02-21T17:31:32;101000.97;;;10.22;100.00
18749;BME280;9503;53.560;10.246;2023-02-21T17:34:00;101010.63;;;9.97;100.00
18749;BME280;9503;53.560;10.246;2023-02-21T17:36:28;101006.97;;;10.23;100.00
18749;BME280;9503;53.560;10.246;2023-02-21T17:38:55;101011.78;;;10.33;100.00
18749;BME280;9503;53.560;10.246;2023-02-21T17:41:22;101017.63;;;10.31;100.00
18749;BME280;9503;53.560;10.246;2023-02-21T17:43:49;101013.06;;;10.41;100.00
18749;BME280;9503;53.560;10.246;2023-02-21T17:46:17;101015.97;;;10.16;100.00
18749;BME280;9503;53.560;10.246;2023-02-21T17:48:45;101012.19;;;10.10;100.00
18749;BME280;9503;53.560;10.246;2023-02-21T17:51:18;101017.13;;;10.21;100.00
18749;BME280;9503;53.560;10.246;2023-02-21T17:53:45;101016.56;;;10.27;100.00
18749;BME280;9503;53.560;10.246;2023-02-21T17:56:16;101023.66;;;10.16;100.00
18749;BME280;9503;53.560;10.246;2023-02-21T17:58:42;101030.63;;;10.19;100.00
